<?xml version="1.0" encoding="UTF-8"?>
<gpx creator="Wikiloc - https://www.wikiloc.com" version="1.1" xmlns="http://www.topografix.com/GPX/1/1" xmlns:xsi="http://www.w3.org/2001/XMLSchema-instance" xsi:schemaLocation="http://www.topografix.com/GPX/1/1 http://www.topografix.com/GPX/1/1/gpx.xsd">
  <metadata>
    <name>Wikiloc - La Fresneda - Convento de Gracia - La Fresneda - HotelelConvent</name>
    <author>
      <name>elconvent1613</name>
      <link href="https://www.wikiloc.com/wikiloc/user.do?id=1458138">
        <text>elconvent1613 on Wikiloc</text>
      </link>
    </author>
    <link href="https://www.wikiloc.com/mountain-biking-trails/la-fresneda-convento-de-gracia-la-fresneda-hotelelconvent-23262236">
      <text>La Fresneda - Convento de Gracia - La Fresneda - HotelelConvent on Wikiloc</text>
    </link>
    <time>2018-03-15T18:42:26Z</time>
  </metadata>
  <trk>
    <name>La Fresneda - Convento de Gracia - La Fresneda - HotelelConvent</name>
    <cmt>Ruta circular de unos 10 kms aproximados. 
Puede realizarse el mismo recorrido hasta el convento de gracia y volver por la misma vía. 
Este circuito ofrece una ruta circular con un nivel un poco mas elevado de dificultad.</cmt>
    <desc>Ruta circular de unos 10 kms aproximados. 
Puede realizarse el mismo recorrido hasta el convento de gracia y volver por la misma vía. 
Este circuito ofrece una ruta circular con un nivel un poco mas elevado de dificultad.</desc>
    <trkseg>
      <trkpt lat="40.926083" lon="0.074089">
        <ele>544.353</ele>
        <time>2018-03-15T21:52:35Z</time>
      </trkpt>
      <trkpt lat="40.925838" lon="0.073973">
        <ele>542.704</ele>
        <time>2018-03-15T21:52:45Z</time>
      </trkpt>
      <trkpt lat="40.925765" lon="0.074358">
        <ele>541.514</ele>
        <time>2018-03-15T21:52:55Z</time>
      </trkpt>
      <trkpt lat="40.925685" lon="0.074808">
        <ele>541.408</ele>
        <time>2018-03-15T21:53:05Z</time>
      </trkpt>
      <trkpt lat="40.925649" lon="0.075119">
        <ele>540.627</ele>
        <time>2018-03-15T21:53:15Z</time>
      </trkpt>
      <trkpt lat="40.925686" lon="0.075299">
        <ele>540.378</ele>
        <time>2018-03-15T21:53:25Z</time>
      </trkpt>
      <trkpt lat="40.925834" lon="0.075422">
        <ele>541.037</ele>
        <time>2018-03-15T21:53:35Z</time>
      </trkpt>
      <trkpt lat="40.925949" lon="0.075489">
        <ele>540.871</ele>
        <time>2018-03-15T21:53:45Z</time>
      </trkpt>
      <trkpt lat="40.926023" lon="0.075611">
        <ele>540.347</ele>
        <time>2018-03-15T21:53:55Z</time>
      </trkpt>
      <trkpt lat="40.926026" lon="0.075703">
        <ele>539.687</ele>
        <time>2018-03-15T21:54:05Z</time>
      </trkpt>
      <trkpt lat="40.925954" lon="0.075791">
        <ele>538.778</ele>
        <time>2018-03-15T21:54:15Z</time>
      </trkpt>
      <trkpt lat="40.925963" lon="0.075889">
        <ele>538.241</ele>
        <time>2018-03-15T21:54:25Z</time>
      </trkpt>
      <trkpt lat="40.926029" lon="0.075897">
        <ele>538.361</ele>
        <time>2018-03-15T21:54:35Z</time>
      </trkpt>
      <trkpt lat="40.926599" lon="0.075856">
        <ele>539.121</ele>
        <time>2018-03-15T21:54:45Z</time>
      </trkpt>
      <trkpt lat="40.927631" lon="0.075772">
        <ele>538.613</ele>
        <time>2018-03-15T21:54:55Z</time>
      </trkpt>
      <trkpt lat="40.927971" lon="0.075805">
        <ele>539.508</ele>
        <time>2018-03-15T21:55:05Z</time>
      </trkpt>
      <trkpt lat="40.928531" lon="0.075949">
        <ele>540.728</ele>
        <time>2018-03-15T21:55:15Z</time>
      </trkpt>
      <trkpt lat="40.929305" lon="0.076196">
        <ele>543.449</ele>
        <time>2018-03-15T21:55:25Z</time>
      </trkpt>
      <trkpt lat="40.929556" lon="0.076212">
        <ele>543.398</ele>
        <time>2018-03-15T21:55:35Z</time>
      </trkpt>
      <trkpt lat="40.929925" lon="0.076105">
        <ele>542.652</ele>
        <time>2018-03-15T21:55:45Z</time>
      </trkpt>
      <trkpt lat="40.930144" lon="0.075955">
        <ele>541.338</ele>
        <time>2018-03-15T21:55:55Z</time>
      </trkpt>
      <trkpt lat="40.930350" lon="0.075563">
        <ele>542.388</ele>
        <time>2018-03-15T21:56:05Z</time>
      </trkpt>
      <trkpt lat="40.930602" lon="0.075064">
        <ele>542.829</ele>
        <time>2018-03-15T21:56:15Z</time>
      </trkpt>
      <trkpt lat="40.930650" lon="0.074887">
        <ele>543.052</ele>
        <time>2018-03-15T21:56:25Z</time>
      </trkpt>
      <trkpt lat="40.930707" lon="0.074811">
        <ele>541.676</ele>
        <time>2018-03-15T21:56:35Z</time>
      </trkpt>
      <trkpt lat="40.930811" lon="0.074700">
        <ele>538.890</ele>
        <time>2018-03-15T21:56:45Z</time>
      </trkpt>
      <trkpt lat="40.930860" lon="0.074615">
        <ele>537.419</ele>
        <time>2018-03-15T21:56:55Z</time>
      </trkpt>
      <trkpt lat="40.930875" lon="0.074502">
        <ele>537.308</ele>
        <time>2018-03-15T21:57:05Z</time>
      </trkpt>
      <trkpt lat="40.930847" lon="0.074376">
        <ele>538.899</ele>
        <time>2018-03-15T21:57:15Z</time>
      </trkpt>
      <trkpt lat="40.930843" lon="0.074080">
        <ele>541.060</ele>
        <time>2018-03-15T21:57:25Z</time>
      </trkpt>
      <trkpt lat="40.930966" lon="0.073796">
        <ele>541.299</ele>
        <time>2018-03-15T21:57:35Z</time>
      </trkpt>
      <trkpt lat="40.931102" lon="0.073474">
        <ele>539.833</ele>
        <time>2018-03-15T21:57:45Z</time>
      </trkpt>
      <trkpt lat="40.931211" lon="0.073168">
        <ele>537.159</ele>
        <time>2018-03-15T21:57:55Z</time>
      </trkpt>
      <trkpt lat="40.931380" lon="0.072894">
        <ele>531.949</ele>
        <time>2018-03-15T21:58:05Z</time>
      </trkpt>
      <trkpt lat="40.931542" lon="0.072583">
        <ele>528.780</ele>
        <time>2018-03-15T21:58:15Z</time>
      </trkpt>
      <trkpt lat="40.931724" lon="0.072122">
        <ele>525.743</ele>
        <time>2018-03-15T21:58:25Z</time>
      </trkpt>
      <trkpt lat="40.931913" lon="0.071677">
        <ele>524.266</ele>
        <time>2018-03-15T21:58:35Z</time>
      </trkpt>
      <trkpt lat="40.931955" lon="0.071360">
        <ele>521.929</ele>
        <time>2018-03-15T21:58:45Z</time>
      </trkpt>
      <trkpt lat="40.931900" lon="0.070800">
        <ele>522.321</ele>
        <time>2018-03-15T21:58:55Z</time>
      </trkpt>
      <trkpt lat="40.931821" lon="0.070354">
        <ele>520.808</ele>
        <time>2018-03-15T21:59:05Z</time>
      </trkpt>
      <trkpt lat="40.931663" lon="0.069914">
        <ele>519.778</ele>
        <time>2018-03-15T21:59:15Z</time>
      </trkpt>
      <trkpt lat="40.931542" lon="0.069362">
        <ele>518.049</ele>
        <time>2018-03-15T21:59:25Z</time>
      </trkpt>
      <trkpt lat="40.931501" lon="0.068927">
        <ele>514.148</ele>
        <time>2018-03-15T21:59:35Z</time>
      </trkpt>
      <trkpt lat="40.931509" lon="0.068525">
        <ele>510.532</ele>
        <time>2018-03-15T21:59:45Z</time>
      </trkpt>
      <trkpt lat="40.931445" lon="0.068327">
        <ele>509.628</ele>
        <time>2018-03-15T21:59:55Z</time>
      </trkpt>
      <trkpt lat="40.931351" lon="0.068337">
        <ele>510.098</ele>
        <time>2018-03-15T22:00:05Z</time>
      </trkpt>
      <trkpt lat="40.931307" lon="0.068429">
        <ele>510.719</ele>
        <time>2018-03-15T22:00:15Z</time>
      </trkpt>
      <trkpt lat="40.931234" lon="0.068600">
        <ele>511.932</ele>
        <time>2018-03-15T22:00:25Z</time>
      </trkpt>
      <trkpt lat="40.931120" lon="0.068740">
        <ele>512.925</ele>
        <time>2018-03-15T22:00:35Z</time>
      </trkpt>
      <trkpt lat="40.930999" lon="0.068659">
        <ele>511.926</ele>
        <time>2018-03-15T22:00:45Z</time>
      </trkpt>
      <trkpt lat="40.930820" lon="0.068595">
        <ele>510.808</ele>
        <time>2018-03-15T22:00:55Z</time>
      </trkpt>
      <trkpt lat="40.930679" lon="0.068568">
        <ele>510.008</ele>
        <time>2018-03-15T22:01:05Z</time>
      </trkpt>
      <trkpt lat="40.930525" lon="0.068407">
        <ele>507.964</ele>
        <time>2018-03-15T22:01:15Z</time>
      </trkpt>
      <trkpt lat="40.930488" lon="0.068321">
        <ele>507.295</ele>
        <time>2018-03-15T22:01:25Z</time>
      </trkpt>
      <trkpt lat="40.930504" lon="0.068160">
        <ele>505.984</ele>
        <time>2018-03-15T22:01:35Z</time>
      </trkpt>
      <trkpt lat="40.930585" lon="0.067962">
        <ele>504.188</ele>
        <time>2018-03-15T22:01:45Z</time>
      </trkpt>
      <trkpt lat="40.930654" lon="0.067806">
        <ele>502.344</ele>
        <time>2018-03-15T22:01:55Z</time>
      </trkpt>
      <trkpt lat="40.930614" lon="0.067624">
        <ele>500.824</ele>
        <time>2018-03-15T22:02:05Z</time>
      </trkpt>
      <trkpt lat="40.930500" lon="0.067323">
        <ele>500.065</ele>
        <time>2018-03-15T22:02:15Z</time>
      </trkpt>
      <trkpt lat="40.930484" lon="0.067098">
        <ele>499.868</ele>
        <time>2018-03-15T22:02:25Z</time>
      </trkpt>
      <trkpt lat="40.930537" lon="0.066902">
        <ele>499.014</ele>
        <time>2018-03-15T22:02:35Z</time>
      </trkpt>
      <trkpt lat="40.930620" lon="0.066760">
        <ele>498.354</ele>
        <time>2018-03-15T22:02:45Z</time>
      </trkpt>
      <trkpt lat="40.930768" lon="0.066589">
        <ele>497.609</ele>
        <time>2018-03-15T22:02:55Z</time>
      </trkpt>
      <trkpt lat="40.930881" lon="0.066411">
        <ele>496.708</ele>
        <time>2018-03-15T22:03:05Z</time>
      </trkpt>
      <trkpt lat="40.930956" lon="0.066031">
        <ele>496.193</ele>
        <time>2018-03-15T22:03:15Z</time>
      </trkpt>
      <trkpt lat="40.931047" lon="0.065663">
        <ele>498.054</ele>
        <time>2018-03-15T22:03:25Z</time>
      </trkpt>
      <trkpt lat="40.931204" lon="0.065298">
        <ele>501.123</ele>
        <time>2018-03-15T22:03:35Z</time>
      </trkpt>
      <trkpt lat="40.931394" lon="0.064934">
        <ele>505.217</ele>
        <time>2018-03-15T22:03:45Z</time>
      </trkpt>
      <trkpt lat="40.931544" lon="0.064598">
        <ele>504.863</ele>
        <time>2018-03-15T22:03:55Z</time>
      </trkpt>
      <trkpt lat="40.931566" lon="0.064301">
        <ele>505.623</ele>
        <time>2018-03-15T22:04:05Z</time>
      </trkpt>
      <trkpt lat="40.931611" lon="0.064175">
        <ele>505.614</ele>
        <time>2018-03-15T22:04:15Z</time>
      </trkpt>
      <trkpt lat="40.931815" lon="0.063874">
        <ele>506.617</ele>
        <time>2018-03-15T22:04:25Z</time>
      </trkpt>
      <trkpt lat="40.932208" lon="0.063276">
        <ele>507.198</ele>
        <time>2018-03-15T22:04:35Z</time>
      </trkpt>
      <trkpt lat="40.932452" lon="0.062943">
        <ele>505.415</ele>
        <time>2018-03-15T22:04:45Z</time>
      </trkpt>
      <trkpt lat="40.932697" lon="0.062756">
        <ele>505.126</ele>
        <time>2018-03-15T22:04:55Z</time>
      </trkpt>
      <trkpt lat="40.932910" lon="0.062630">
        <ele>505.108</ele>
        <time>2018-03-15T22:05:05Z</time>
      </trkpt>
      <trkpt lat="40.933276" lon="0.062251">
        <ele>505.081</ele>
        <time>2018-03-15T22:05:15Z</time>
      </trkpt>
      <trkpt lat="40.933467" lon="0.062123">
        <ele>504.352</ele>
        <time>2018-03-15T22:05:25Z</time>
      </trkpt>
      <trkpt lat="40.933714" lon="0.062125">
        <ele>502.731</ele>
        <time>2018-03-15T22:05:35Z</time>
      </trkpt>
      <trkpt lat="40.933860" lon="0.062208">
        <ele>501.385</ele>
        <time>2018-03-15T22:05:45Z</time>
      </trkpt>
      <trkpt lat="40.933973" lon="0.062337">
        <ele>500.461</ele>
        <time>2018-03-15T22:05:55Z</time>
      </trkpt>
      <trkpt lat="40.934123" lon="0.062453">
        <ele>500.251</ele>
        <time>2018-03-15T22:06:05Z</time>
      </trkpt>
      <trkpt lat="40.934245" lon="0.062471">
        <ele>501.152</ele>
        <time>2018-03-15T22:06:15Z</time>
      </trkpt>
      <trkpt lat="40.934387" lon="0.062412">
        <ele>502.615</ele>
        <time>2018-03-15T22:06:25Z</time>
      </trkpt>
      <trkpt lat="40.934567" lon="0.062391">
        <ele>501.832</ele>
        <time>2018-03-15T22:06:35Z</time>
      </trkpt>
      <trkpt lat="40.934822" lon="0.062214">
        <ele>498.092</ele>
        <time>2018-03-15T22:06:45Z</time>
      </trkpt>
      <trkpt lat="40.935066" lon="0.062053">
        <ele>498.911</ele>
        <time>2018-03-15T22:06:55Z</time>
      </trkpt>
      <trkpt lat="40.935270" lon="0.061999">
        <ele>501.208</ele>
        <time>2018-03-15T22:07:05Z</time>
      </trkpt>
      <trkpt lat="40.935588" lon="0.062066">
        <ele>501.795</ele>
        <time>2018-03-15T22:07:15Z</time>
      </trkpt>
      <trkpt lat="40.935779" lon="0.062136">
        <ele>501.556</ele>
        <time>2018-03-15T22:07:25Z</time>
      </trkpt>
      <trkpt lat="40.935990" lon="0.062369">
        <ele>502.465</ele>
        <time>2018-03-15T22:07:35Z</time>
      </trkpt>
      <trkpt lat="40.936200" lon="0.062552">
        <ele>503.169</ele>
        <time>2018-03-15T22:07:45Z</time>
      </trkpt>
      <trkpt lat="40.936476" lon="0.062788">
        <ele>503.935</ele>
        <time>2018-03-15T22:07:55Z</time>
      </trkpt>
      <trkpt lat="40.936687" lon="0.063035">
        <ele>505.345</ele>
        <time>2018-03-15T22:08:05Z</time>
      </trkpt>
      <trkpt lat="40.936820" lon="0.063112">
        <ele>505.816</ele>
        <time>2018-03-15T22:08:15Z</time>
      </trkpt>
      <trkpt lat="40.937041" lon="0.063059">
        <ele>508.389</ele>
        <time>2018-03-15T22:08:25Z</time>
      </trkpt>
      <trkpt lat="40.937272" lon="0.063075">
        <ele>507.875</ele>
        <time>2018-03-15T22:08:35Z</time>
      </trkpt>
      <trkpt lat="40.937609" lon="0.062994">
        <ele>504.728</ele>
        <time>2018-03-15T22:08:45Z</time>
      </trkpt>
      <trkpt lat="40.937799" lon="0.062807">
        <ele>505.420</ele>
        <time>2018-03-15T22:08:55Z</time>
      </trkpt>
      <trkpt lat="40.938127" lon="0.062581">
        <ele>504.708</ele>
        <time>2018-03-15T22:09:05Z</time>
      </trkpt>
      <trkpt lat="40.938346" lon="0.062377">
        <ele>504.339</ele>
        <time>2018-03-15T22:09:15Z</time>
      </trkpt>
      <trkpt lat="40.938378" lon="0.062190">
        <ele>503.250</ele>
        <time>2018-03-15T22:09:25Z</time>
      </trkpt>
      <trkpt lat="40.938378" lon="0.061970">
        <ele>503.999</ele>
        <time>2018-03-15T22:09:35Z</time>
      </trkpt>
      <trkpt lat="40.938455" lon="0.061632">
        <ele>503.983</ele>
        <time>2018-03-15T22:09:45Z</time>
      </trkpt>
      <trkpt lat="40.938545" lon="0.061262">
        <ele>499.839</ele>
        <time>2018-03-15T22:09:55Z</time>
      </trkpt>
      <trkpt lat="40.938508" lon="0.061079">
        <ele>499.849</ele>
        <time>2018-03-15T22:10:05Z</time>
      </trkpt>
      <trkpt lat="40.938447" lon="0.060865">
        <ele>502.730</ele>
        <time>2018-03-15T22:10:15Z</time>
      </trkpt>
      <trkpt lat="40.938484" lon="0.060575">
        <ele>502.833</ele>
        <time>2018-03-15T22:10:25Z</time>
      </trkpt>
      <trkpt lat="40.938630" lon="0.060312">
        <ele>500.047</ele>
        <time>2018-03-15T22:10:35Z</time>
      </trkpt>
      <trkpt lat="40.938630" lon="0.060135">
        <ele>501.529</ele>
        <time>2018-03-15T22:10:45Z</time>
      </trkpt>
      <trkpt lat="40.938626" lon="0.059990">
        <ele>502.721</ele>
        <time>2018-03-15T22:10:55Z</time>
      </trkpt>
      <trkpt lat="40.938768" lon="0.059599">
        <ele>501.908</ele>
        <time>2018-03-15T22:11:05Z</time>
      </trkpt>
      <trkpt lat="40.938828" lon="0.058971">
        <ele>497.916</ele>
        <time>2018-03-15T22:11:15Z</time>
      </trkpt>
      <trkpt lat="40.938889" lon="0.058333">
        <ele>495.057</ele>
        <time>2018-03-15T22:11:25Z</time>
      </trkpt>
      <trkpt lat="40.938978" lon="0.057802">
        <ele>493.266</ele>
        <time>2018-03-15T22:11:35Z</time>
      </trkpt>
      <trkpt lat="40.938917" lon="0.057394">
        <ele>494.790</ele>
        <time>2018-03-15T22:11:45Z</time>
      </trkpt>
      <trkpt lat="40.938873" lon="0.056782">
        <ele>493.766</ele>
        <time>2018-03-15T22:11:55Z</time>
      </trkpt>
      <trkpt lat="40.938950" lon="0.056300">
        <ele>490.266</ele>
        <time>2018-03-15T22:12:05Z</time>
      </trkpt>
      <trkpt lat="40.938885" lon="0.056015">
        <ele>489.077</ele>
        <time>2018-03-15T22:12:15Z</time>
      </trkpt>
      <trkpt lat="40.938869" lon="0.055731">
        <ele>485.860</ele>
        <time>2018-03-15T22:12:25Z</time>
      </trkpt>
      <trkpt lat="40.938747" lon="0.055511">
        <ele>484.917</ele>
        <time>2018-03-15T22:12:35Z</time>
      </trkpt>
      <trkpt lat="40.938460" lon="0.055141">
        <ele>482.987</ele>
        <time>2018-03-15T22:12:45Z</time>
      </trkpt>
      <trkpt lat="40.938026" lon="0.054663">
        <ele>483.015</ele>
        <time>2018-03-15T22:12:55Z</time>
      </trkpt>
      <trkpt lat="40.937941" lon="0.054513">
        <ele>483.108</ele>
        <time>2018-03-15T22:13:05Z</time>
      </trkpt>
      <trkpt lat="40.937791" lon="0.054106">
        <ele>481.563</ele>
        <time>2018-03-15T22:13:15Z</time>
      </trkpt>
      <trkpt lat="40.937673" lon="0.053827">
        <ele>482.034</ele>
        <time>2018-03-15T22:13:25Z</time>
      </trkpt>
      <trkpt lat="40.937572" lon="0.053682">
        <ele>483.953</ele>
        <time>2018-03-15T22:13:35Z</time>
      </trkpt>
      <trkpt lat="40.937446" lon="0.053591">
        <ele>485.477</ele>
        <time>2018-03-15T22:13:45Z</time>
      </trkpt>
      <trkpt lat="40.937167" lon="0.053376">
        <ele>486.733</ele>
        <time>2018-03-15T22:13:55Z</time>
      </trkpt>
      <trkpt lat="40.937102" lon="0.053247">
        <ele>486.273</ele>
        <time>2018-03-15T22:14:05Z</time>
      </trkpt>
      <trkpt lat="40.936984" lon="0.053000">
        <ele>486.474</ele>
        <time>2018-03-15T22:14:15Z</time>
      </trkpt>
      <trkpt lat="40.936891" lon="0.052872">
        <ele>488.287</ele>
        <time>2018-03-15T22:14:25Z</time>
      </trkpt>
      <trkpt lat="40.936790" lon="0.052727">
        <ele>489.982</ele>
        <time>2018-03-15T22:14:35Z</time>
      </trkpt>
      <trkpt lat="40.936660" lon="0.052416">
        <ele>488.843</ele>
        <time>2018-03-15T22:14:45Z</time>
      </trkpt>
      <trkpt lat="40.936514" lon="0.052056">
        <ele>488.517</ele>
        <time>2018-03-15T22:14:55Z</time>
      </trkpt>
      <trkpt lat="40.936348" lon="0.051761">
        <ele>489.608</ele>
        <time>2018-03-15T22:15:05Z</time>
      </trkpt>
      <trkpt lat="40.936190" lon="0.051557">
        <ele>490.630</ele>
        <time>2018-03-15T22:15:15Z</time>
      </trkpt>
      <trkpt lat="40.936095" lon="0.051450">
        <ele>490.611</ele>
        <time>2018-03-15T22:15:25Z</time>
      </trkpt>
      <trkpt lat="40.935975" lon="0.051287">
        <ele>491.180</ele>
        <time>2018-03-15T22:15:35Z</time>
      </trkpt>
      <trkpt lat="40.935866" lon="0.051083">
        <ele>491.094</ele>
        <time>2018-03-15T22:15:45Z</time>
      </trkpt>
      <trkpt lat="40.935724" lon="0.050919">
        <ele>492.110</ele>
        <time>2018-03-15T22:15:55Z</time>
      </trkpt>
      <trkpt lat="40.935528" lon="0.050763">
        <ele>491.980</ele>
        <time>2018-03-15T22:16:05Z</time>
      </trkpt>
      <trkpt lat="40.935317" lon="0.050672">
        <ele>492.691</ele>
        <time>2018-03-15T22:16:15Z</time>
      </trkpt>
      <trkpt lat="40.935088" lon="0.050455">
        <ele>490.154</ele>
        <time>2018-03-15T22:16:25Z</time>
      </trkpt>
      <trkpt lat="40.934940" lon="0.050308">
        <ele>487.961</ele>
        <time>2018-03-15T22:16:35Z</time>
      </trkpt>
      <trkpt lat="40.934741" lon="0.049972">
        <ele>485.121</ele>
        <time>2018-03-15T22:16:45Z</time>
      </trkpt>
      <trkpt lat="40.934577" lon="0.049723">
        <ele>486.513</ele>
        <time>2018-03-15T22:16:55Z</time>
      </trkpt>
      <trkpt lat="40.934504" lon="0.049473">
        <ele>487.508</ele>
        <time>2018-03-15T22:17:05Z</time>
      </trkpt>
      <trkpt lat="40.934468" lon="0.049076">
        <ele>491.948</ele>
        <time>2018-03-15T22:17:15Z</time>
      </trkpt>
      <trkpt lat="40.934561" lon="0.048513">
        <ele>494.789</ele>
        <time>2018-03-15T22:17:25Z</time>
      </trkpt>
      <trkpt lat="40.934642" lon="0.048143">
        <ele>494.158</ele>
        <time>2018-03-15T22:17:35Z</time>
      </trkpt>
      <trkpt lat="40.934709" lon="0.047727">
        <ele>492.672</ele>
        <time>2018-03-15T22:17:45Z</time>
      </trkpt>
      <trkpt lat="40.934664" lon="0.047470">
        <ele>494.888</ele>
        <time>2018-03-15T22:17:55Z</time>
      </trkpt>
      <trkpt lat="40.934571" lon="0.047341">
        <ele>497.358</ele>
        <time>2018-03-15T22:18:05Z</time>
      </trkpt>
      <trkpt lat="40.934502" lon="0.047231">
        <ele>499.239</ele>
        <time>2018-03-15T22:18:15Z</time>
      </trkpt>
      <trkpt lat="40.934269" lon="0.046595">
        <ele>500.862</ele>
        <time>2018-03-15T22:18:25Z</time>
      </trkpt>
      <trkpt lat="40.934119" lon="0.046129">
        <ele>497.996</ele>
        <time>2018-03-15T22:18:35Z</time>
      </trkpt>
      <trkpt lat="40.933998" lon="0.045689">
        <ele>498.631</ele>
        <time>2018-03-15T22:18:45Z</time>
      </trkpt>
      <trkpt lat="40.933882" lon="0.045461">
        <ele>499.824</ele>
        <time>2018-03-15T22:18:55Z</time>
      </trkpt>
      <trkpt lat="40.933773" lon="0.045418">
        <ele>501.908</ele>
        <time>2018-03-15T22:19:05Z</time>
      </trkpt>
      <trkpt lat="40.933633" lon="0.045378">
        <ele>504.921</ele>
        <time>2018-03-15T22:19:15Z</time>
      </trkpt>
      <trkpt lat="40.933548" lon="0.045394">
        <ele>507.252</ele>
        <time>2018-03-15T22:19:25Z</time>
      </trkpt>
      <trkpt lat="40.933357" lon="0.045176">
        <ele>508.461</ele>
        <time>2018-03-15T22:19:35Z</time>
      </trkpt>
      <trkpt lat="40.933297" lon="0.045096">
        <ele>509.015</ele>
        <time>2018-03-15T22:19:45Z</time>
      </trkpt>
      <trkpt lat="40.933222" lon="0.044884">
        <ele>508.041</ele>
        <time>2018-03-15T22:19:55Z</time>
      </trkpt>
      <trkpt lat="40.933102" lon="0.044670">
        <ele>507.371</ele>
        <time>2018-03-15T22:20:05Z</time>
      </trkpt>
      <trkpt lat="40.932938" lon="0.044476">
        <ele>507.632</ele>
        <time>2018-03-15T22:20:15Z</time>
      </trkpt>
      <trkpt lat="40.932553" lon="0.044240">
        <ele>511.175</ele>
        <time>2018-03-15T22:20:25Z</time>
      </trkpt>
      <trkpt lat="40.932190" lon="0.043988">
        <ele>511.139</ele>
        <time>2018-03-15T22:20:35Z</time>
      </trkpt>
      <trkpt lat="40.931748" lon="0.043640">
        <ele>519.001</ele>
        <time>2018-03-15T22:20:45Z</time>
      </trkpt>
      <trkpt lat="40.931564" lon="0.043538">
        <ele>521.421</ele>
        <time>2018-03-15T22:20:55Z</time>
      </trkpt>
      <trkpt lat="40.931404" lon="0.043312">
        <ele>519.408</ele>
        <time>2018-03-15T22:21:05Z</time>
      </trkpt>
      <trkpt lat="40.931228" lon="0.043108">
        <ele>521.635</ele>
        <time>2018-03-15T22:21:15Z</time>
      </trkpt>
      <trkpt lat="40.931053" lon="0.042889">
        <ele>523.736</ele>
        <time>2018-03-15T22:21:25Z</time>
      </trkpt>
      <trkpt lat="40.931009" lon="0.042813">
        <ele>523.715</ele>
        <time>2018-03-15T22:21:35Z</time>
      </trkpt>
      <trkpt lat="40.930950" lon="0.042591">
        <ele>522.169</ele>
        <time>2018-03-15T22:21:45Z</time>
      </trkpt>
      <trkpt lat="40.930829" lon="0.042446">
        <ele>522.835</ele>
        <time>2018-03-15T22:21:55Z</time>
      </trkpt>
      <trkpt lat="40.930670" lon="0.042339">
        <ele>523.885</ele>
        <time>2018-03-15T22:22:05Z</time>
      </trkpt>
      <trkpt lat="40.930443" lon="0.042250">
        <ele>525.276</ele>
        <time>2018-03-15T22:22:15Z</time>
      </trkpt>
      <trkpt lat="40.930385" lon="0.042206">
        <ele>525.229</ele>
        <time>2018-03-15T22:22:25Z</time>
      </trkpt>
      <trkpt lat="40.930312" lon="0.042136">
        <ele>525.588</ele>
        <time>2018-03-15T22:22:35Z</time>
      </trkpt>
      <trkpt lat="40.930267" lon="0.042125">
        <ele>525.924</ele>
        <time>2018-03-15T22:22:45Z</time>
      </trkpt>
      <trkpt lat="40.930209" lon="0.042151">
        <ele>527.726</ele>
        <time>2018-03-15T22:22:55Z</time>
      </trkpt>
      <trkpt lat="40.930074" lon="0.042179">
        <ele>531.908</ele>
        <time>2018-03-15T22:23:05Z</time>
      </trkpt>
      <trkpt lat="40.929917" lon="0.042138">
        <ele>535.120</ele>
        <time>2018-03-15T22:23:15Z</time>
      </trkpt>
      <trkpt lat="40.929773" lon="0.042032">
        <ele>535.571</ele>
        <time>2018-03-15T22:23:25Z</time>
      </trkpt>
      <trkpt lat="40.929723" lon="0.041924">
        <ele>533.780</ele>
        <time>2018-03-15T22:23:35Z</time>
      </trkpt>
      <trkpt lat="40.929683" lon="0.041718">
        <ele>531.834</ele>
        <time>2018-03-15T22:23:45Z</time>
      </trkpt>
      <trkpt lat="40.929640" lon="0.041645">
        <ele>531.980</ele>
        <time>2018-03-15T22:23:55Z</time>
      </trkpt>
      <trkpt lat="40.929552" lon="0.041584">
        <ele>533.660</ele>
        <time>2018-03-15T22:24:05Z</time>
      </trkpt>
      <trkpt lat="40.929439" lon="0.041420">
        <ele>535.431</ele>
        <time>2018-03-15T22:24:15Z</time>
      </trkpt>
      <trkpt lat="40.929270" lon="0.041094">
        <ele>537.984</ele>
        <time>2018-03-15T22:24:25Z</time>
      </trkpt>
      <trkpt lat="40.929148" lon="0.040957">
        <ele>539.749</ele>
        <time>2018-03-15T22:24:35Z</time>
      </trkpt>
      <trkpt lat="40.928973" lon="0.040764">
        <ele>541.602</ele>
        <time>2018-03-15T22:24:45Z</time>
      </trkpt>
      <trkpt lat="40.928876" lon="0.040701">
        <ele>542.722</ele>
        <time>2018-03-15T22:24:55Z</time>
      </trkpt>
      <trkpt lat="40.928753" lon="0.040725">
        <ele>544.108</ele>
        <time>2018-03-15T22:25:05Z</time>
      </trkpt>
      <trkpt lat="40.928668" lon="0.040690">
        <ele>544.476</ele>
        <time>2018-03-15T22:25:15Z</time>
      </trkpt>
      <trkpt lat="40.928526" lon="0.040550">
        <ele>543.627</ele>
        <time>2018-03-15T22:25:25Z</time>
      </trkpt>
      <trkpt lat="40.928144" lon="0.040291">
        <ele>544.246</ele>
        <time>2018-03-15T22:25:35Z</time>
      </trkpt>
      <trkpt lat="40.927923" lon="0.040259">
        <ele>546.840</ele>
        <time>2018-03-15T22:25:45Z</time>
      </trkpt>
      <trkpt lat="40.927747" lon="0.040212">
        <ele>548.696</ele>
        <time>2018-03-15T22:25:55Z</time>
      </trkpt>
      <trkpt lat="40.927627" lon="0.040188">
        <ele>548.996</ele>
        <time>2018-03-15T22:26:05Z</time>
      </trkpt>
      <trkpt lat="40.927570" lon="0.040086">
        <ele>548.417</ele>
        <time>2018-03-15T22:26:15Z</time>
      </trkpt>
      <trkpt lat="40.927554" lon="0.039962">
        <ele>547.630</ele>
        <time>2018-03-15T22:26:25Z</time>
      </trkpt>
      <trkpt lat="40.927560" lon="0.039750">
        <ele>546.724</ele>
        <time>2018-03-15T22:26:35Z</time>
      </trkpt>
      <trkpt lat="40.927499" lon="0.039541">
        <ele>547.704</ele>
        <time>2018-03-15T22:26:45Z</time>
      </trkpt>
      <trkpt lat="40.927408" lon="0.039380">
        <ele>550.414</ele>
        <time>2018-03-15T22:26:55Z</time>
      </trkpt>
      <trkpt lat="40.927238" lon="0.039182">
        <ele>554.708</ele>
        <time>2018-03-15T22:27:05Z</time>
      </trkpt>
      <trkpt lat="40.927037" lon="0.039066">
        <ele>559.264</ele>
        <time>2018-03-15T22:27:15Z</time>
      </trkpt>
      <trkpt lat="40.926790" lon="0.039007">
        <ele>563.255</ele>
        <time>2018-03-15T22:27:25Z</time>
      </trkpt>
      <trkpt lat="40.926595" lon="0.038986">
        <ele>564.524</ele>
        <time>2018-03-15T22:27:35Z</time>
      </trkpt>
      <trkpt lat="40.926230" lon="0.038924">
        <ele>561.488</ele>
        <time>2018-03-15T22:27:45Z</time>
      </trkpt>
      <trkpt lat="40.926064" lon="0.038959">
        <ele>562.284</ele>
        <time>2018-03-15T22:27:55Z</time>
      </trkpt>
      <trkpt lat="40.926003" lon="0.038986">
        <ele>564.014</ele>
        <time>2018-03-15T22:28:05Z</time>
      </trkpt>
      <trkpt lat="40.925912" lon="0.038932">
        <ele>565.555</ele>
        <time>2018-03-15T22:28:15Z</time>
      </trkpt>
      <trkpt lat="40.925801" lon="0.038806">
        <ele>567.148</ele>
        <time>2018-03-15T22:28:25Z</time>
      </trkpt>
      <trkpt lat="40.925643" lon="0.038712">
        <ele>569.862</ele>
        <time>2018-03-15T22:28:35Z</time>
      </trkpt>
      <trkpt lat="40.925539" lon="0.038702">
        <ele>571.683</ele>
        <time>2018-03-15T22:28:45Z</time>
      </trkpt>
      <trkpt lat="40.925420" lon="0.038766">
        <ele>572.011</ele>
        <time>2018-03-15T22:28:55Z</time>
      </trkpt>
      <trkpt lat="40.925282" lon="0.038833">
        <ele>573.008</ele>
        <time>2018-03-15T22:29:05Z</time>
      </trkpt>
      <trkpt lat="40.925096" lon="0.038763">
        <ele>573.848</ele>
        <time>2018-03-15T22:29:15Z</time>
      </trkpt>
      <trkpt lat="40.924929" lon="0.038584">
        <ele>572.159</ele>
        <time>2018-03-15T22:29:25Z</time>
      </trkpt>
      <trkpt lat="40.924745" lon="0.038546">
        <ele>574.918</ele>
        <time>2018-03-15T22:29:35Z</time>
      </trkpt>
      <trkpt lat="40.924506" lon="0.038482">
        <ele>576.152</ele>
        <time>2018-03-15T22:29:45Z</time>
      </trkpt>
      <trkpt lat="40.924165" lon="0.038476">
        <ele>580.178</ele>
        <time>2018-03-15T22:29:55Z</time>
      </trkpt>
      <trkpt lat="40.923971" lon="0.038546">
        <ele>580.578</ele>
        <time>2018-03-15T22:30:05Z</time>
      </trkpt>
      <trkpt lat="40.923849" lon="0.038672">
        <ele>581.689</ele>
        <time>2018-03-15T22:30:15Z</time>
      </trkpt>
      <trkpt lat="40.923730" lon="0.038745">
        <ele>581.572</ele>
        <time>2018-03-15T22:30:25Z</time>
      </trkpt>
      <trkpt lat="40.923600" lon="0.038763">
        <ele>580.785</ele>
        <time>2018-03-15T22:30:35Z</time>
      </trkpt>
      <trkpt lat="40.923294" lon="0.038763">
        <ele>581.989</ele>
        <time>2018-03-15T22:30:45Z</time>
      </trkpt>
      <trkpt lat="40.923150" lon="0.038771">
        <ele>583.717</ele>
        <time>2018-03-15T22:30:55Z</time>
      </trkpt>
      <trkpt lat="40.923069" lon="0.038854">
        <ele>584.108</ele>
        <time>2018-03-15T22:31:05Z</time>
      </trkpt>
      <trkpt lat="40.923012" lon="0.038911">
        <ele>584.160</ele>
        <time>2018-03-15T22:31:15Z</time>
      </trkpt>
      <trkpt lat="40.923018" lon="0.039015">
        <ele>584.521</ele>
        <time>2018-03-15T22:31:25Z</time>
      </trkpt>
      <trkpt lat="40.923014" lon="0.039064">
        <ele>584.740</ele>
        <time>2018-03-15T22:31:35Z</time>
      </trkpt>
      <trkpt lat="40.922990" lon="0.039010">
        <ele>584.524</ele>
        <time>2018-03-15T22:31:45Z</time>
      </trkpt>
      <trkpt lat="40.922957" lon="0.038986">
        <ele>584.530</ele>
        <time>2018-03-15T22:31:55Z</time>
      </trkpt>
      <trkpt lat="40.922931" lon="0.039015">
        <ele>584.720</ele>
        <time>2018-03-15T22:32:05Z</time>
      </trkpt>
      <trkpt lat="40.922893" lon="0.039042">
        <ele>584.951</ele>
        <time>2018-03-15T22:32:15Z</time>
      </trkpt>
      <trkpt lat="40.922846" lon="0.039032">
        <ele>584.924</ele>
        <time>2018-03-15T22:32:25Z</time>
      </trkpt>
      <trkpt lat="40.922801" lon="0.038975">
        <ele>584.624</ele>
        <time>2018-03-15T22:32:35Z</time>
      </trkpt>
      <trkpt lat="40.922789" lon="0.038863">
        <ele>584.404</ele>
        <time>2018-03-15T22:32:45Z</time>
      </trkpt>
      <trkpt lat="40.922824" lon="0.038715">
        <ele>586.314</ele>
        <time>2018-03-15T22:32:55Z</time>
      </trkpt>
      <trkpt lat="40.922870" lon="0.038543">
        <ele>589.508</ele>
        <time>2018-03-15T22:33:05Z</time>
      </trkpt>
      <trkpt lat="40.922913" lon="0.038399">
        <ele>593.994</ele>
        <time>2018-03-15T22:33:15Z</time>
      </trkpt>
      <trkpt lat="40.922941" lon="0.038181">
        <ele>599.625</ele>
        <time>2018-03-15T22:33:25Z</time>
      </trkpt>
      <trkpt lat="40.922990" lon="0.038042">
        <ele>602.124</ele>
        <time>2018-03-15T22:33:35Z</time>
      </trkpt>
      <trkpt lat="40.923030" lon="0.037993">
        <ele>601.858</ele>
        <time>2018-03-15T22:33:45Z</time>
      </trkpt>
      <trkpt lat="40.923022" lon="0.037937">
        <ele>602.414</ele>
        <time>2018-03-15T22:33:55Z</time>
      </trkpt>
      <trkpt lat="40.922972" lon="0.037916">
        <ele>603.484</ele>
        <time>2018-03-15T22:34:05Z</time>
      </trkpt>
      <trkpt lat="40.922889" lon="0.037961">
        <ele>604.375</ele>
        <time>2018-03-15T22:34:15Z</time>
      </trkpt>
      <trkpt lat="40.922791" lon="0.038085">
        <ele>604.068</ele>
        <time>2018-03-15T22:34:25Z</time>
      </trkpt>
      <trkpt lat="40.922682" lon="0.038189">
        <ele>601.322</ele>
        <time>2018-03-15T22:34:35Z</time>
      </trkpt>
      <trkpt lat="40.922572" lon="0.038264">
        <ele>599.662</ele>
        <time>2018-03-15T22:34:45Z</time>
      </trkpt>
      <trkpt lat="40.922508" lon="0.038238">
        <ele>600.408</ele>
        <time>2018-03-15T22:34:55Z</time>
      </trkpt>
      <trkpt lat="40.922459" lon="0.038125">
        <ele>603.008</ele>
        <time>2018-03-15T22:35:05Z</time>
      </trkpt>
      <trkpt lat="40.922483" lon="0.037932">
        <ele>606.754</ele>
        <time>2018-03-15T22:35:15Z</time>
      </trkpt>
      <trkpt lat="40.922503" lon="0.037739">
        <ele>609.485</ele>
        <time>2018-03-15T22:35:25Z</time>
      </trkpt>
      <trkpt lat="40.922447" lon="0.037572">
        <ele>610.854</ele>
        <time>2018-03-15T22:35:35Z</time>
      </trkpt>
      <trkpt lat="40.922268" lon="0.037519">
        <ele>610.168</ele>
        <time>2018-03-15T22:35:45Z</time>
      </trkpt>
      <trkpt lat="40.922122" lon="0.037406">
        <ele>611.094</ele>
        <time>2018-03-15T22:35:55Z</time>
      </trkpt>
      <trkpt lat="40.922017" lon="0.037218">
        <ele>613.364</ele>
        <time>2018-03-15T22:36:05Z</time>
      </trkpt>
      <trkpt lat="40.921932" lon="0.037063">
        <ele>614.245</ele>
        <time>2018-03-15T22:36:15Z</time>
      </trkpt>
      <trkpt lat="40.921741" lon="0.036918">
        <ele>615.378</ele>
        <time>2018-03-15T22:36:25Z</time>
      </trkpt>
      <trkpt lat="40.921596" lon="0.036805">
        <ele>613.663</ele>
        <time>2018-03-15T22:36:35Z</time>
      </trkpt>
      <trkpt lat="40.921429" lon="0.036757">
        <ele>613.244</ele>
        <time>2018-03-15T22:36:45Z</time>
      </trkpt>
      <trkpt lat="40.921279" lon="0.036773">
        <ele>614.718</ele>
        <time>2018-03-15T22:36:55Z</time>
      </trkpt>
      <trkpt lat="40.921133" lon="0.036816">
        <ele>616.908</ele>
        <time>2018-03-15T22:37:05Z</time>
      </trkpt>
      <trkpt lat="40.920967" lon="0.036821">
        <ele>618.728</ele>
        <time>2018-03-15T22:37:15Z</time>
      </trkpt>
      <trkpt lat="40.920700" lon="0.036977">
        <ele>622.869</ele>
        <time>2018-03-15T22:37:25Z</time>
      </trkpt>
      <trkpt lat="40.920606" lon="0.036977">
        <ele>624.898</ele>
        <time>2018-03-15T22:37:35Z</time>
      </trkpt>
      <trkpt lat="40.920323" lon="0.036827">
        <ele>628.812</ele>
        <time>2018-03-15T22:37:45Z</time>
      </trkpt>
      <trkpt lat="40.920128" lon="0.036746">
        <ele>630.168</ele>
        <time>2018-03-15T22:37:55Z</time>
      </trkpt>
      <trkpt lat="40.919998" lon="0.036644">
        <ele>631.228</ele>
        <time>2018-03-15T22:38:05Z</time>
      </trkpt>
      <trkpt lat="40.919771" lon="0.036650">
        <ele>633.669</ele>
        <time>2018-03-15T22:38:15Z</time>
      </trkpt>
      <trkpt lat="40.919395" lon="0.036660">
        <ele>636.942</ele>
        <time>2018-03-15T22:38:25Z</time>
      </trkpt>
      <trkpt lat="40.919151" lon="0.036768">
        <ele>635.696</ele>
        <time>2018-03-15T22:38:35Z</time>
      </trkpt>
      <trkpt lat="40.919005" lon="0.036795">
        <ele>635.531</ele>
        <time>2018-03-15T22:38:45Z</time>
      </trkpt>
      <trkpt lat="40.918859" lon="0.036757">
        <ele>635.624</ele>
        <time>2018-03-15T22:38:55Z</time>
      </trkpt>
      <trkpt lat="40.918693" lon="0.036644">
        <ele>636.208</ele>
        <time>2018-03-15T22:39:05Z</time>
      </trkpt>
      <trkpt lat="40.918543" lon="0.036575">
        <ele>636.921</ele>
        <time>2018-03-15T22:39:15Z</time>
      </trkpt>
      <trkpt lat="40.918114" lon="0.036559">
        <ele>636.562</ele>
        <time>2018-03-15T22:39:25Z</time>
      </trkpt>
      <trkpt lat="40.917749" lon="0.036591">
        <ele>636.591</ele>
        <time>2018-03-15T22:39:35Z</time>
      </trkpt>
      <trkpt lat="40.917449" lon="0.036483">
        <ele>638.875</ele>
        <time>2018-03-15T22:39:45Z</time>
      </trkpt>
      <trkpt lat="40.917307" lon="0.036430">
        <ele>639.551</ele>
        <time>2018-03-15T22:39:55Z</time>
      </trkpt>
      <trkpt lat="40.917116" lon="0.036521">
        <ele>640.581</ele>
        <time>2018-03-15T22:40:05Z</time>
      </trkpt>
      <trkpt lat="40.917023" lon="0.036677">
        <ele>641.162</ele>
        <time>2018-03-15T22:40:15Z</time>
      </trkpt>
      <trkpt lat="40.916930" lon="0.036923">
        <ele>640.385</ele>
        <time>2018-03-15T22:40:25Z</time>
      </trkpt>
      <trkpt lat="40.916841" lon="0.037073">
        <ele>640.656</ele>
        <time>2018-03-15T22:40:35Z</time>
      </trkpt>
      <trkpt lat="40.916731" lon="0.037100">
        <ele>641.159</ele>
        <time>2018-03-15T22:40:45Z</time>
      </trkpt>
      <trkpt lat="40.916565" lon="0.037068">
        <ele>641.414</ele>
        <time>2018-03-15T22:40:55Z</time>
      </trkpt>
      <trkpt lat="40.916306" lon="0.037052">
        <ele>641.008</ele>
        <time>2018-03-15T22:41:05Z</time>
      </trkpt>
      <trkpt lat="40.916099" lon="0.036923">
        <ele>642.197</ele>
        <time>2018-03-15T22:41:15Z</time>
      </trkpt>
      <trkpt lat="40.915937" lon="0.036880">
        <ele>641.638</ele>
        <time>2018-03-15T22:41:25Z</time>
      </trkpt>
      <trkpt lat="40.915791" lon="0.036843">
        <ele>641.697</ele>
        <time>2018-03-15T22:41:35Z</time>
      </trkpt>
      <trkpt lat="40.915710" lon="0.036752">
        <ele>642.931</ele>
        <time>2018-03-15T22:41:45Z</time>
      </trkpt>
      <trkpt lat="40.915572" lon="0.036575">
        <ele>645.077</ele>
        <time>2018-03-15T22:41:55Z</time>
      </trkpt>
      <trkpt lat="40.915475" lon="0.036403">
        <ele>646.927</ele>
        <time>2018-03-15T22:42:05Z</time>
      </trkpt>
      <trkpt lat="40.915385" lon="0.036221">
        <ele>647.648</ele>
        <time>2018-03-15T22:42:15Z</time>
      </trkpt>
      <trkpt lat="40.915268" lon="0.036151">
        <ele>647.831</ele>
        <time>2018-03-15T22:42:25Z</time>
      </trkpt>
      <trkpt lat="40.914996" lon="0.036092">
        <ele>646.145</ele>
        <time>2018-03-15T22:42:35Z</time>
      </trkpt>
      <trkpt lat="40.914806" lon="0.036092">
        <ele>646.047</ele>
        <time>2018-03-15T22:42:45Z</time>
      </trkpt>
      <trkpt lat="40.914635" lon="0.036124">
        <ele>646.311</ele>
        <time>2018-03-15T22:42:55Z</time>
      </trkpt>
      <trkpt lat="40.914396" lon="0.036108">
        <ele>647.008</ele>
        <time>2018-03-15T22:43:05Z</time>
      </trkpt>
      <trkpt lat="40.914092" lon="0.036151">
        <ele>647.556</ele>
        <time>2018-03-15T22:43:15Z</time>
      </trkpt>
      <trkpt lat="40.913727" lon="0.036242">
        <ele>649.797</ele>
        <time>2018-03-15T22:43:25Z</time>
      </trkpt>
      <trkpt lat="40.913411" lon="0.036301">
        <ele>650.496</ele>
        <time>2018-03-15T22:43:35Z</time>
      </trkpt>
      <trkpt lat="40.913046" lon="0.036290">
        <ele>649.410</ele>
        <time>2018-03-15T22:43:45Z</time>
      </trkpt>
      <trkpt lat="40.912803" lon="0.036387">
        <ele>650.816</ele>
        <time>2018-03-15T22:43:55Z</time>
      </trkpt>
      <trkpt lat="40.912580" lon="0.036424">
        <ele>652.336</ele>
        <time>2018-03-15T22:44:05Z</time>
      </trkpt>
      <trkpt lat="40.912183" lon="0.036666">
        <ele>651.457</ele>
        <time>2018-03-15T22:44:15Z</time>
      </trkpt>
      <trkpt lat="40.912110" lon="0.036757">
        <ele>651.380</ele>
        <time>2018-03-15T22:44:25Z</time>
      </trkpt>
      <trkpt lat="40.912013" lon="0.036939">
        <ele>652.486</ele>
        <time>2018-03-15T22:44:35Z</time>
      </trkpt>
      <trkpt lat="40.911842" lon="0.037234">
        <ele>655.360</ele>
        <time>2018-03-15T22:44:45Z</time>
      </trkpt>
      <trkpt lat="40.911737" lon="0.037422">
        <ele>655.426</ele>
        <time>2018-03-15T22:44:55Z</time>
      </trkpt>
      <trkpt lat="40.911546" lon="0.037594">
        <ele>657.808</ele>
        <time>2018-03-15T22:45:05Z</time>
      </trkpt>
      <trkpt lat="40.911315" lon="0.037706">
        <ele>661.860</ele>
        <time>2018-03-15T22:45:15Z</time>
      </trkpt>
      <trkpt lat="40.911173" lon="0.037637">
        <ele>663.961</ele>
        <time>2018-03-15T22:45:25Z</time>
      </trkpt>
      <trkpt lat="40.911084" lon="0.037524">
        <ele>664.650</ele>
        <time>2018-03-15T22:45:35Z</time>
      </trkpt>
      <trkpt lat="40.910963" lon="0.037256">
        <ele>664.084</ele>
        <time>2018-03-15T22:45:45Z</time>
      </trkpt>
      <trkpt lat="40.910869" lon="0.037165">
        <ele>665.310</ele>
        <time>2018-03-15T22:45:55Z</time>
      </trkpt>
      <trkpt lat="40.910736" lon="0.037116">
        <ele>666.650</ele>
        <time>2018-03-15T22:46:05Z</time>
      </trkpt>
      <trkpt lat="40.910415" lon="0.036993">
        <ele>668.131</ele>
        <time>2018-03-15T22:46:15Z</time>
      </trkpt>
      <trkpt lat="40.910079" lon="0.036859">
        <ele>670.234</ele>
        <time>2018-03-15T22:46:25Z</time>
      </trkpt>
      <trkpt lat="40.909836" lon="0.036746">
        <ele>673.081</ele>
        <time>2018-03-15T22:46:35Z</time>
      </trkpt>
      <trkpt lat="40.909414" lon="0.036618">
        <ele>675.161</ele>
        <time>2018-03-15T22:46:45Z</time>
      </trkpt>
      <trkpt lat="40.909098" lon="0.036596">
        <ele>677.417</ele>
        <time>2018-03-15T22:46:55Z</time>
      </trkpt>
      <trkpt lat="40.908907" lon="0.036736">
        <ele>677.708</ele>
        <time>2018-03-15T22:47:05Z</time>
      </trkpt>
      <trkpt lat="40.908713" lon="0.036811">
        <ele>678.480</ele>
        <time>2018-03-15T22:47:15Z</time>
      </trkpt>
      <trkpt lat="40.908425" lon="0.036789">
        <ele>681.041</ele>
        <time>2018-03-15T22:47:25Z</time>
      </trkpt>
      <trkpt lat="40.908117" lon="0.036778">
        <ele>681.710</ele>
        <time>2018-03-15T22:47:35Z</time>
      </trkpt>
      <trkpt lat="40.907764" lon="0.036821">
        <ele>681.714</ele>
        <time>2018-03-15T22:47:45Z</time>
      </trkpt>
      <trkpt lat="40.907407" lon="0.036977">
        <ele>682.920</ele>
        <time>2018-03-15T22:47:55Z</time>
      </trkpt>
      <trkpt lat="40.907014" lon="0.037186">
        <ele>683.210</ele>
        <time>2018-03-15T22:48:05Z</time>
      </trkpt>
      <trkpt lat="40.906763" lon="0.037406">
        <ele>683.251</ele>
        <time>2018-03-15T22:48:15Z</time>
      </trkpt>
      <trkpt lat="40.906430" lon="0.037626">
        <ele>683.454</ele>
        <time>2018-03-15T22:48:25Z</time>
      </trkpt>
      <trkpt lat="40.906199" lon="0.037787">
        <ele>684.321</ele>
        <time>2018-03-15T22:48:35Z</time>
      </trkpt>
      <trkpt lat="40.906033" lon="0.037851">
        <ele>685.041</ele>
        <time>2018-03-15T22:48:45Z</time>
      </trkpt>
      <trkpt lat="40.905992" lon="0.037948">
        <ele>684.205</ele>
        <time>2018-03-15T22:48:55Z</time>
      </trkpt>
      <trkpt lat="40.906069" lon="0.038179">
        <ele>681.908</ele>
        <time>2018-03-15T22:49:05Z</time>
      </trkpt>
      <trkpt lat="40.906171" lon="0.038361">
        <ele>680.924</ele>
        <time>2018-03-15T22:49:15Z</time>
      </trkpt>
      <trkpt lat="40.906345" lon="0.038458">
        <ele>679.935</ele>
        <time>2018-03-15T22:49:25Z</time>
      </trkpt>
      <trkpt lat="40.906576" lon="0.038710">
        <ele>675.964</ele>
        <time>2018-03-15T22:49:35Z</time>
      </trkpt>
      <trkpt lat="40.906726" lon="0.038908">
        <ele>671.568</ele>
        <time>2018-03-15T22:49:45Z</time>
      </trkpt>
      <trkpt lat="40.906827" lon="0.039182">
        <ele>667.924</ele>
        <time>2018-03-15T22:49:55Z</time>
      </trkpt>
      <trkpt lat="40.906795" lon="0.039418">
        <ele>667.234</ele>
        <time>2018-03-15T22:50:05Z</time>
      </trkpt>
      <trkpt lat="40.906754" lon="0.039734">
        <ele>666.755</ele>
        <time>2018-03-15T22:50:15Z</time>
      </trkpt>
      <trkpt lat="40.906750" lon="0.039965">
        <ele>667.048</ele>
        <time>2018-03-15T22:50:25Z</time>
      </trkpt>
      <trkpt lat="40.906604" lon="0.040421">
        <ele>666.929</ele>
        <time>2018-03-15T22:50:35Z</time>
      </trkpt>
      <trkpt lat="40.906527" lon="0.041016">
        <ele>669.000</ele>
        <time>2018-03-15T22:50:45Z</time>
      </trkpt>
      <trkpt lat="40.906475" lon="0.041381">
        <ele>669.820</ele>
        <time>2018-03-15T22:50:55Z</time>
      </trkpt>
      <trkpt lat="40.906390" lon="0.041762">
        <ele>670.308</ele>
        <time>2018-03-15T22:51:05Z</time>
      </trkpt>
      <trkpt lat="40.906398" lon="0.042164">
        <ele>665.794</ele>
        <time>2018-03-15T22:51:15Z</time>
      </trkpt>
      <trkpt lat="40.906402" lon="0.042282">
        <ele>664.465</ele>
        <time>2018-03-15T22:51:25Z</time>
      </trkpt>
      <trkpt lat="40.906272" lon="0.042518">
        <ele>663.884</ele>
        <time>2018-03-15T22:51:35Z</time>
      </trkpt>
      <trkpt lat="40.906187" lon="0.042679">
        <ele>663.878</ele>
        <time>2018-03-15T22:51:45Z</time>
      </trkpt>
      <trkpt lat="40.906098" lon="0.042830">
        <ele>664.444</ele>
        <time>2018-03-15T22:51:55Z</time>
      </trkpt>
      <trkpt lat="40.906142" lon="0.043184">
        <ele>665.984</ele>
        <time>2018-03-15T22:52:05Z</time>
      </trkpt>
      <trkpt lat="40.906264" lon="0.043420">
        <ele>667.835</ele>
        <time>2018-03-15T22:52:15Z</time>
      </trkpt>
      <trkpt lat="40.906491" lon="0.043709">
        <ele>670.918</ele>
        <time>2018-03-15T22:52:25Z</time>
      </trkpt>
      <trkpt lat="40.906649" lon="0.043999">
        <ele>672.494</ele>
        <time>2018-03-15T22:52:35Z</time>
      </trkpt>
      <trkpt lat="40.906734" lon="0.044197">
        <ele>672.957</ele>
        <time>2018-03-15T22:52:45Z</time>
      </trkpt>
      <trkpt lat="40.906868" lon="0.044401">
        <ele>672.822</ele>
        <time>2018-03-15T22:52:55Z</time>
      </trkpt>
      <trkpt lat="40.907136" lon="0.044675">
        <ele>671.208</ele>
        <time>2018-03-15T22:53:05Z</time>
      </trkpt>
      <trkpt lat="40.907342" lon="0.044932">
        <ele>669.771</ele>
        <time>2018-03-15T22:53:15Z</time>
      </trkpt>
      <trkpt lat="40.907476" lon="0.045120">
        <ele>668.722</ele>
        <time>2018-03-15T22:53:25Z</time>
      </trkpt>
      <trkpt lat="40.907521" lon="0.045319">
        <ele>667.661</ele>
        <time>2018-03-15T22:53:35Z</time>
      </trkpt>
      <trkpt lat="40.907533" lon="0.045678">
        <ele>666.675</ele>
        <time>2018-03-15T22:53:45Z</time>
      </trkpt>
      <trkpt lat="40.907557" lon="0.046080">
        <ele>666.031</ele>
        <time>2018-03-15T22:53:55Z</time>
      </trkpt>
      <trkpt lat="40.907557" lon="0.046477">
        <ele>665.171</ele>
        <time>2018-03-15T22:54:05Z</time>
      </trkpt>
      <trkpt lat="40.907577" lon="0.046890">
        <ele>664.462</ele>
        <time>2018-03-15T22:54:15Z</time>
      </trkpt>
      <trkpt lat="40.907650" lon="0.047051">
        <ele>664.615</ele>
        <time>2018-03-15T22:54:25Z</time>
      </trkpt>
      <trkpt lat="40.907906" lon="0.047421">
        <ele>665.993</ele>
        <time>2018-03-15T22:54:35Z</time>
      </trkpt>
      <trkpt lat="40.907999" lon="0.047598">
        <ele>666.265</ele>
        <time>2018-03-15T22:54:45Z</time>
      </trkpt>
      <trkpt lat="40.908104" lon="0.047888">
        <ele>666.321</ele>
        <time>2018-03-15T22:54:55Z</time>
      </trkpt>
      <trkpt lat="40.908186" lon="0.048151">
        <ele>667.508</ele>
        <time>2018-03-15T22:55:05Z</time>
      </trkpt>
      <trkpt lat="40.908303" lon="0.048366">
        <ele>670.321</ele>
        <time>2018-03-15T22:55:15Z</time>
      </trkpt>
      <trkpt lat="40.908303" lon="0.048532">
        <ele>670.392</ele>
        <time>2018-03-15T22:55:25Z</time>
      </trkpt>
      <trkpt lat="40.908287" lon="0.048763">
        <ele>669.011</ele>
        <time>2018-03-15T22:55:35Z</time>
      </trkpt>
      <trkpt lat="40.908336" lon="0.049154">
        <ele>670.015</ele>
        <time>2018-03-15T22:55:45Z</time>
      </trkpt>
      <trkpt lat="40.908384" lon="0.049530">
        <ele>670.991</ele>
        <time>2018-03-15T22:55:55Z</time>
      </trkpt>
      <trkpt lat="40.908429" lon="0.050173">
        <ele>669.311</ele>
        <time>2018-03-15T22:56:05Z</time>
      </trkpt>
      <trkpt lat="40.908453" lon="0.050426">
        <ele>670.342</ele>
        <time>2018-03-15T22:56:15Z</time>
      </trkpt>
      <trkpt lat="40.908526" lon="0.050747">
        <ele>672.535</ele>
        <time>2018-03-15T22:56:25Z</time>
      </trkpt>
      <trkpt lat="40.908627" lon="0.051005">
        <ele>673.522</ele>
        <time>2018-03-15T22:56:35Z</time>
      </trkpt>
      <trkpt lat="40.908737" lon="0.051236">
        <ele>672.862</ele>
        <time>2018-03-15T22:56:45Z</time>
      </trkpt>
      <trkpt lat="40.908822" lon="0.051402">
        <ele>672.208</ele>
        <time>2018-03-15T22:56:55Z</time>
      </trkpt>
      <trkpt lat="40.909082" lon="0.051756">
        <ele>672.508</ele>
        <time>2018-03-15T22:57:05Z</time>
      </trkpt>
      <trkpt lat="40.909333" lon="0.052008">
        <ele>671.894</ele>
        <time>2018-03-15T22:57:15Z</time>
      </trkpt>
      <trkpt lat="40.909556" lon="0.052233">
        <ele>670.815</ele>
        <time>2018-03-15T22:57:25Z</time>
      </trkpt>
      <trkpt lat="40.909905" lon="0.052362">
        <ele>671.224</ele>
        <time>2018-03-15T22:57:35Z</time>
      </trkpt>
      <trkpt lat="40.910123" lon="0.052518">
        <ele>671.858</ele>
        <time>2018-03-15T22:57:45Z</time>
      </trkpt>
      <trkpt lat="40.910205" lon="0.052662">
        <ele>672.974</ele>
        <time>2018-03-15T22:57:55Z</time>
      </trkpt>
      <trkpt lat="40.910237" lon="0.052861">
        <ele>673.374</ele>
        <time>2018-03-15T22:58:05Z</time>
      </trkpt>
      <trkpt lat="40.910322" lon="0.053290">
        <ele>672.385</ele>
        <time>2018-03-15T22:58:15Z</time>
      </trkpt>
      <trkpt lat="40.910371" lon="0.053617">
        <ele>671.098</ele>
        <time>2018-03-15T22:58:25Z</time>
      </trkpt>
      <trkpt lat="40.910399" lon="0.053928">
        <ele>670.142</ele>
        <time>2018-03-15T22:58:35Z</time>
      </trkpt>
      <trkpt lat="40.910586" lon="0.054234">
        <ele>673.522</ele>
        <time>2018-03-15T22:58:45Z</time>
      </trkpt>
      <trkpt lat="40.910740" lon="0.054545">
        <ele>676.414</ele>
        <time>2018-03-15T22:58:55Z</time>
      </trkpt>
      <trkpt lat="40.910805" lon="0.054862">
        <ele>678.308</ele>
        <time>2018-03-15T22:59:05Z</time>
      </trkpt>
      <trkpt lat="40.910784" lon="0.055007">
        <ele>677.986</ele>
        <time>2018-03-15T22:59:15Z</time>
      </trkpt>
      <trkpt lat="40.910756" lon="0.055237">
        <ele>677.387</ele>
        <time>2018-03-15T22:59:25Z</time>
      </trkpt>
      <trkpt lat="40.910736" lon="0.055307">
        <ele>676.676</ele>
        <time>2018-03-15T22:59:35Z</time>
      </trkpt>
      <trkpt lat="40.910890" lon="0.055506">
        <ele>676.980</ele>
        <time>2018-03-15T22:59:45Z</time>
      </trkpt>
      <trkpt lat="40.911092" lon="0.055758">
        <ele>676.356</ele>
        <time>2018-03-15T22:59:55Z</time>
      </trkpt>
      <trkpt lat="40.911149" lon="0.056080">
        <ele>674.966</ele>
        <time>2018-03-15T23:00:05Z</time>
      </trkpt>
      <trkpt lat="40.911117" lon="0.056337">
        <ele>674.177</ele>
        <time>2018-03-15T23:00:15Z</time>
      </trkpt>
      <trkpt lat="40.910930" lon="0.056643">
        <ele>672.810</ele>
        <time>2018-03-15T23:00:25Z</time>
      </trkpt>
      <trkpt lat="40.910687" lon="0.056890">
        <ele>670.114</ele>
        <time>2018-03-15T23:00:35Z</time>
      </trkpt>
      <trkpt lat="40.910480" lon="0.057147">
        <ele>665.254</ele>
        <time>2018-03-15T23:00:45Z</time>
      </trkpt>
      <trkpt lat="40.910452" lon="0.057313">
        <ele>663.909</ele>
        <time>2018-03-15T23:00:55Z</time>
      </trkpt>
      <trkpt lat="40.910586" lon="0.057480">
        <ele>665.708</ele>
        <time>2018-03-15T23:01:05Z</time>
      </trkpt>
      <trkpt lat="40.910707" lon="0.057646">
        <ele>666.153</ele>
        <time>2018-03-15T23:01:15Z</time>
      </trkpt>
      <trkpt lat="40.910809" lon="0.057973">
        <ele>663.824</ele>
        <time>2018-03-15T23:01:25Z</time>
      </trkpt>
      <trkpt lat="40.911007" lon="0.058386">
        <ele>665.463</ele>
        <time>2018-03-15T23:01:35Z</time>
      </trkpt>
      <trkpt lat="40.911177" lon="0.058756">
        <ele>665.827</ele>
        <time>2018-03-15T23:01:45Z</time>
      </trkpt>
      <trkpt lat="40.911388" lon="0.058826">
        <ele>663.613</ele>
        <time>2018-03-15T23:01:55Z</time>
      </trkpt>
      <trkpt lat="40.911619" lon="0.058638">
        <ele>666.423</ele>
        <time>2018-03-15T23:02:05Z</time>
      </trkpt>
      <trkpt lat="40.911773" lon="0.058553">
        <ele>666.194</ele>
        <time>2018-03-15T23:02:15Z</time>
      </trkpt>
      <trkpt lat="40.912244" lon="0.058676">
        <ele>656.587</ele>
        <time>2018-03-15T23:02:25Z</time>
      </trkpt>
      <trkpt lat="40.912665" lon="0.058837">
        <ele>654.395</ele>
        <time>2018-03-15T23:02:35Z</time>
      </trkpt>
      <trkpt lat="40.912661" lon="0.058955">
        <ele>653.549</ele>
        <time>2018-03-15T23:02:45Z</time>
      </trkpt>
      <trkpt lat="40.912787" lon="0.059234">
        <ele>652.423</ele>
        <time>2018-03-15T23:02:55Z</time>
      </trkpt>
      <trkpt lat="40.912856" lon="0.059475">
        <ele>650.208</ele>
        <time>2018-03-15T23:03:05Z</time>
      </trkpt>
      <trkpt lat="40.912888" lon="0.059615">
        <ele>647.661</ele>
        <time>2018-03-15T23:03:15Z</time>
      </trkpt>
      <trkpt lat="40.913140" lon="0.059722">
        <ele>644.892</ele>
        <time>2018-03-15T23:03:25Z</time>
      </trkpt>
      <trkpt lat="40.913480" lon="0.059572">
        <ele>644.141</ele>
        <time>2018-03-15T23:03:35Z</time>
      </trkpt>
      <trkpt lat="40.913841" lon="0.059470">
        <ele>639.365</ele>
        <time>2018-03-15T23:03:45Z</time>
      </trkpt>
      <trkpt lat="40.914052" lon="0.059454">
        <ele>641.261</ele>
        <time>2018-03-15T23:03:55Z</time>
      </trkpt>
      <trkpt lat="40.914198" lon="0.059583">
        <ele>642.051</ele>
        <time>2018-03-15T23:04:05Z</time>
      </trkpt>
      <trkpt lat="40.914279" lon="0.059792">
        <ele>642.172</ele>
        <time>2018-03-15T23:04:15Z</time>
      </trkpt>
      <trkpt lat="40.914331" lon="0.060151">
        <ele>641.425</ele>
        <time>2018-03-15T23:04:25Z</time>
      </trkpt>
      <trkpt lat="40.914344" lon="0.060457">
        <ele>638.922</ele>
        <time>2018-03-15T23:04:35Z</time>
      </trkpt>
      <trkpt lat="40.914400" lon="0.060736">
        <ele>636.662</ele>
        <time>2018-03-15T23:04:45Z</time>
      </trkpt>
      <trkpt lat="40.914421" lon="0.061235">
        <ele>632.108</ele>
        <time>2018-03-15T23:04:55Z</time>
      </trkpt>
      <trkpt lat="40.914449" lon="0.061600">
        <ele>629.108</ele>
        <time>2018-03-15T23:05:05Z</time>
      </trkpt>
      <trkpt lat="40.914664" lon="0.061943">
        <ele>627.814</ele>
        <time>2018-03-15T23:05:15Z</time>
      </trkpt>
      <trkpt lat="40.915017" lon="0.062372">
        <ele>626.065</ele>
        <time>2018-03-15T23:05:25Z</time>
      </trkpt>
      <trkpt lat="40.915130" lon="0.062479">
        <ele>625.634</ele>
        <time>2018-03-15T23:05:35Z</time>
      </trkpt>
      <trkpt lat="40.915369" lon="0.062495">
        <ele>624.438</ele>
        <time>2018-03-15T23:05:45Z</time>
      </trkpt>
      <trkpt lat="40.915746" lon="0.062458">
        <ele>620.034</ele>
        <time>2018-03-15T23:05:55Z</time>
      </trkpt>
      <trkpt lat="40.916123" lon="0.062265">
        <ele>620.574</ele>
        <time>2018-03-15T23:06:05Z</time>
      </trkpt>
      <trkpt lat="40.916302" lon="0.062308">
        <ele>620.125</ele>
        <time>2018-03-15T23:06:15Z</time>
      </trkpt>
      <trkpt lat="40.916658" lon="0.062528">
        <ele>619.668</ele>
        <time>2018-03-15T23:06:25Z</time>
      </trkpt>
      <trkpt lat="40.917011" lon="0.062892">
        <ele>619.247</ele>
        <time>2018-03-15T23:06:35Z</time>
      </trkpt>
      <trkpt lat="40.917416" lon="0.063086">
        <ele>615.029</ele>
        <time>2018-03-15T23:06:45Z</time>
      </trkpt>
      <trkpt lat="40.917753" lon="0.063150">
        <ele>615.121</ele>
        <time>2018-03-15T23:06:55Z</time>
      </trkpt>
      <trkpt lat="40.917923" lon="0.063397">
        <ele>611.708</ele>
        <time>2018-03-15T23:07:05Z</time>
      </trkpt>
      <trkpt lat="40.918069" lon="0.063627">
        <ele>612.286</ele>
        <time>2018-03-15T23:07:15Z</time>
      </trkpt>
      <trkpt lat="40.918053" lon="0.063928">
        <ele>611.837</ele>
        <time>2018-03-15T23:07:25Z</time>
      </trkpt>
      <trkpt lat="40.918053" lon="0.064105">
        <ele>611.116</ele>
        <time>2018-03-15T23:07:35Z</time>
      </trkpt>
      <trkpt lat="40.918126" lon="0.064357">
        <ele>611.760</ele>
        <time>2018-03-15T23:07:45Z</time>
      </trkpt>
      <trkpt lat="40.918146" lon="0.064631">
        <ele>611.276</ele>
        <time>2018-03-15T23:07:55Z</time>
      </trkpt>
      <trkpt lat="40.918118" lon="0.064797">
        <ele>609.466</ele>
        <time>2018-03-15T23:08:05Z</time>
      </trkpt>
      <trkpt lat="40.918065" lon="0.065054">
        <ele>607.167</ele>
        <time>2018-03-15T23:08:15Z</time>
      </trkpt>
      <trkpt lat="40.917968" lon="0.065441">
        <ele>605.470</ele>
        <time>2018-03-15T23:08:25Z</time>
      </trkpt>
      <trkpt lat="40.917846" lon="0.066041">
        <ele>598.653</ele>
        <time>2018-03-15T23:08:35Z</time>
      </trkpt>
      <trkpt lat="40.917806" lon="0.066347">
        <ele>599.604</ele>
        <time>2018-03-15T23:08:45Z</time>
      </trkpt>
      <trkpt lat="40.917753" lon="0.066685">
        <ele>598.914</ele>
        <time>2018-03-15T23:08:55Z</time>
      </trkpt>
      <trkpt lat="40.917814" lon="0.066910">
        <ele>598.608</ele>
        <time>2018-03-15T23:09:05Z</time>
      </trkpt>
      <trkpt lat="40.917878" lon="0.067098">
        <ele>596.577</ele>
        <time>2018-03-15T23:09:15Z</time>
      </trkpt>
      <trkpt lat="40.918081" lon="0.067345">
        <ele>594.258</ele>
        <time>2018-03-15T23:09:25Z</time>
      </trkpt>
      <trkpt lat="40.918182" lon="0.067522">
        <ele>588.757</ele>
        <time>2018-03-15T23:09:35Z</time>
      </trkpt>
      <trkpt lat="40.918442" lon="0.067683">
        <ele>585.241</ele>
        <time>2018-03-15T23:09:45Z</time>
      </trkpt>
      <trkpt lat="40.918624" lon="0.067881">
        <ele>581.957</ele>
        <time>2018-03-15T23:09:55Z</time>
      </trkpt>
      <trkpt lat="40.918823" lon="0.068214">
        <ele>579.247</ele>
        <time>2018-03-15T23:10:05Z</time>
      </trkpt>
      <trkpt lat="40.919151" lon="0.068504">
        <ele>581.588</ele>
        <time>2018-03-15T23:10:15Z</time>
      </trkpt>
      <trkpt lat="40.919297" lon="0.068793">
        <ele>583.421</ele>
        <time>2018-03-15T23:10:25Z</time>
      </trkpt>
      <trkpt lat="40.919407" lon="0.069013">
        <ele>583.266</ele>
        <time>2018-03-15T23:10:35Z</time>
      </trkpt>
      <trkpt lat="40.919520" lon="0.069281">
        <ele>581.829</ele>
        <time>2018-03-15T23:10:45Z</time>
      </trkpt>
      <trkpt lat="40.919621" lon="0.069410">
        <ele>581.921</ele>
        <time>2018-03-15T23:10:55Z</time>
      </trkpt>
      <trkpt lat="40.919727" lon="0.069469">
        <ele>582.608</ele>
        <time>2018-03-15T23:11:05Z</time>
      </trkpt>
      <trkpt lat="40.919857" lon="0.069625">
        <ele>581.728</ele>
        <time>2018-03-15T23:11:15Z</time>
      </trkpt>
      <trkpt lat="40.920080" lon="0.069727">
        <ele>581.559</ele>
        <time>2018-03-15T23:11:25Z</time>
      </trkpt>
      <trkpt lat="40.920339" lon="0.069786">
        <ele>578.028</ele>
        <time>2018-03-15T23:11:35Z</time>
      </trkpt>
      <trkpt lat="40.920651" lon="0.069705">
        <ele>580.382</ele>
        <time>2018-03-15T23:11:45Z</time>
      </trkpt>
      <trkpt lat="40.920947" lon="0.069748">
        <ele>582.838</ele>
        <time>2018-03-15T23:11:55Z</time>
      </trkpt>
      <trkpt lat="40.921125" lon="0.069759">
        <ele>582.328</ele>
        <time>2018-03-15T23:12:05Z</time>
      </trkpt>
      <trkpt lat="40.921304" lon="0.069861">
        <ele>577.039</ele>
        <time>2018-03-15T23:12:15Z</time>
      </trkpt>
      <trkpt lat="40.921701" lon="0.070091">
        <ele>569.752</ele>
        <time>2018-03-15T23:12:25Z</time>
      </trkpt>
      <trkpt lat="40.922062" lon="0.070226">
        <ele>567.266</ele>
        <time>2018-03-15T23:12:35Z</time>
      </trkpt>
      <trkpt lat="40.922431" lon="0.070204">
        <ele>566.229</ele>
        <time>2018-03-15T23:12:45Z</time>
      </trkpt>
      <trkpt lat="40.922726" lon="0.070258">
        <ele>562.821</ele>
        <time>2018-03-15T23:12:55Z</time>
      </trkpt>
      <trkpt lat="40.922897" lon="0.070488">
        <ele>561.308</ele>
        <time>2018-03-15T23:13:05Z</time>
      </trkpt>
      <trkpt lat="40.923039" lon="0.070762">
        <ele>561.468</ele>
        <time>2018-03-15T23:13:15Z</time>
      </trkpt>
      <trkpt lat="40.923103" lon="0.070939">
        <ele>559.419</ele>
        <time>2018-03-15T23:13:25Z</time>
      </trkpt>
      <trkpt lat="40.923294" lon="0.071202">
        <ele>554.788</ele>
        <time>2018-03-15T23:13:35Z</time>
      </trkpt>
      <trkpt lat="40.923415" lon="0.071309">
        <ele>551.332</ele>
        <time>2018-03-15T23:13:45Z</time>
      </trkpt>
      <trkpt lat="40.923630" lon="0.071186">
        <ele>552.478</ele>
        <time>2018-03-15T23:13:55Z</time>
      </trkpt>
      <trkpt lat="40.923796" lon="0.071089">
        <ele>553.758</ele>
        <time>2018-03-15T23:14:05Z</time>
      </trkpt>
      <trkpt lat="40.924048" lon="0.071229">
        <ele>553.079</ele>
        <time>2018-03-15T23:14:15Z</time>
      </trkpt>
      <trkpt lat="40.924242" lon="0.071486">
        <ele>552.872</ele>
        <time>2018-03-15T23:14:25Z</time>
      </trkpt>
      <trkpt lat="40.924364" lon="0.071846">
        <ele>551.098</ele>
        <time>2018-03-15T23:14:35Z</time>
      </trkpt>
      <trkpt lat="40.924522" lon="0.072221">
        <ele>548.115</ele>
        <time>2018-03-15T23:14:45Z</time>
      </trkpt>
      <trkpt lat="40.924919" lon="0.072822">
        <ele>544.726</ele>
        <time>2018-03-15T23:14:55Z</time>
      </trkpt>
      <trkpt lat="40.925304" lon="0.073493">
        <ele>544.008</ele>
        <time>2018-03-15T23:15:05Z</time>
      </trkpt>
      <trkpt lat="40.925624" lon="0.073991">
        <ele>542.111</ele>
        <time>2018-03-15T23:15:15Z</time>
      </trkpt>
      <trkpt lat="40.925758" lon="0.074190">
        <ele>541.572</ele>
        <time>2018-03-15T23:15:25Z</time>
      </trkpt>
      <trkpt lat="40.925851" lon="0.073900">
        <ele>543.131</ele>
        <time>2018-03-15T23:15:35Z</time>
      </trkpt>
      <trkpt lat="40.926026" lon="0.073949">
        <ele>544.785</ele>
        <time>2018-03-15T23:15:45Z</time>
      </trkpt>
    </trkseg>
  </trk></gpx>